createdAt,value
2022-08-20T00:01:19.798Z,94269.66
2022-08-20T00:03:31.455Z,94256.25
2022-08-20T00:05:37.207Z,94259.22
2022-08-20T00:07:39.058Z,94254.63
2022-08-20T00:09:41.801Z,94262.69
2022-08-20T00:11:43.706Z,94266.19
2022-08-20T00:13:48.922Z,94265.09
2022-08-20T00:15:51.155Z,94271.00
2022-08-20T00:17:53.063Z,94270.75
2022-08-20T00:19:54.935Z,94272.88
2022-08-20T00:21:58.597Z,94266.72
2022-08-20T00:24:00.886Z,94271.81
2022-08-20T00:26:03.022Z,94274.25
2022-08-20T00:28:07.135Z,94270.50
2022-08-20T00:30:11.561Z,94265.91
2022-08-20T00:32:13.321Z,94262.97
2022-08-20T00:34:15.142Z,94264.84
2022-08-20T00:36:18.371Z,94261.34
2022-08-20T00:38:20.314Z,94270.47
2022-08-20T00:40:29.535Z,94274.22
2022-08-20T00:42:31.301Z,94282.28
2022-08-20T00:44:33.340Z,94273.44
2022-08-20T00:46:35.616Z,94264.53
2022-08-20T00:48:40.187Z,94268.59
2022-08-20T00:50:45.942Z,94261.34
2022-08-20T00:52:50.274Z,94267.22
2022-08-20T00:54:55.879Z,94256.47
2022-08-20T00:57:05.330Z,94264.53
2022-08-20T00:59:11.671Z,94263.47
2022-08-20T01:01:15.868Z,94242.81
2022-08-20T01:03:20.755Z,94252.97
2022-08-20T01:05:27.880Z,94248.09
2022-08-20T01:07:37.914Z,94237.38
2022-08-20T01:09:57.433Z,94235.69
2022-08-20T01:12:01.947Z,94237.03
2022-08-20T01:14:23.898Z,94230.88
2022-08-20T01:16:29.452Z,94238.66
2022-08-20T01:18:31.655Z,94239.47
2022-08-20T01:21:00.483Z,94227.94
2022-08-20T01:23:30.168Z,94235.47
2022-08-20T01:25:44.536Z,94237.59
2022-08-20T01:27:47.115Z,94231.69
2022-08-20T01:29:55.307Z,94236.25
2022-08-20T01:32:01.578Z,94231.69
2022-08-20T01:34:06.203Z,94230.59
2022-08-20T01:36:09.093Z,94234.31
2022-08-20T01:38:11.656Z,94230.03
2022-08-20T01:40:14.676Z,94223.88
2022-08-20T01:42:20.898Z,94228.44
2022-08-20T01:44:25.052Z,94226.03
2022-08-20T01:46:31.113Z,94213.66
2022-08-20T01:48:32.905Z,94203.72
2022-08-20T01:50:37.345Z,94200.78
2022-08-20T01:53:15.453Z,94208.84
2022-08-20T01:55:17.693Z,94213.66
2022-08-20T01:57:20.979Z,94216.59
2022-08-20T01:59:23.977Z,94216.84
2022-08-20T02:01:46.047Z,94218.06
2022-08-20T02:03:49.005Z,94222.41
2022-08-20T02:05:51.042Z,94224.28
2022-08-20T02:07:52.990Z,94221.53
2022-08-20T02:09:55.445Z,94224.53
2022-08-20T02:11:57.874Z,94221.63
2022-08-20T02:14:00.619Z,94221.13
2022-08-20T02:16:02.698Z,94220.56
2022-08-20T02:18:10.545Z,94216.81
2022-08-20T02:20:19.417Z,94219.47
2022-08-20T02:22:30.277Z,94217.09
2022-08-20T02:24:32.325Z,94219.25
2022-08-20T02:26:37.913Z,94209.38
2022-08-20T02:28:40.048Z,94218.47
2022-08-20T02:30:47.015Z,94219.00
2022-08-20T02:32:49.815Z,94219.22
2022-08-20T02:34:57.653Z,94224.28
2022-08-20T02:36:59.384Z,94227.25
2022-08-20T02:39:01.146Z,94225.88
2022-08-20T02:41:03.050Z,94224.03
2022-08-20T02:43:05.588Z,94218.91
2022-08-20T02:45:10.416Z,94224.03
2022-08-20T02:47:21.670Z,94222.66
2022-08-20T02:49:26.868Z,94226.38
2022-08-20T02:51:30.678Z,94231.44
2022-08-20T02:53:34.949Z,94228.50
2022-08-20T02:55:37.182Z,94225.56
2022-08-20T02:57:39.309Z,94232.25
2022-08-20T02:59:41.279Z,94227.97
2022-08-20T03:01:43.034Z,94227.13
2022-08-20T03:03:45.948Z,94238.13
2022-08-20T03:05:48.615Z,94234.41
2022-08-20T03:07:56.689Z,94237.09
2022-08-20T03:09:59.123Z,94229.31
2022-08-20T03:12:00.974Z,94233.59
2022-08-20T03:14:02.687Z,94235.94
2022-08-20T03:16:05.514Z,94234.34
2022-08-20T03:18:07.445Z,94232.69
2022-08-20T03:20:10.067Z,94240.00
2022-08-20T03:22:11.795Z,94232.25
2022-08-20T03:24:13.572Z,94239.09
2022-08-20T03:26:16.659Z,94234.84
2022-08-20T03:28:20.051Z,94241.34
2022-08-20T03:30:23.838Z,94241.47
2022-08-20T03:32:25.809Z,94236.13
2022-08-20T03:34:28.341Z,94238.34
2022-08-20T03:36:31.163Z,94243.72
2022-08-20T03:38:33.640Z,94246.16
2022-08-20T03:40:36.658Z,94238.94
2022-08-20T03:42:40.012Z,94246.97
2022-08-20T03:44:41.882Z,94235.13
2022-08-20T03:46:43.649Z,94244.50
2022-08-20T03:48:45.758Z,94241.59
2022-08-20T03:50:51.168Z,94247.78
2022-08-20T03:52:53.281Z,94244.59
2022-08-20T03:54:56.202Z,94251.38
2022-08-20T03:56:57.974Z,94260.19
2022-08-20T03:59:00.219Z,94265.25
2022-08-20T04:01:45.207Z,94257.09
2022-08-20T04:03:42.693Z,94255.97
2022-08-20T04:05:45.054Z,94258.41
2022-08-20T04:07:46.811Z,94247.44
2022-08-20T04:09:48.599Z,94252.84
2022-08-20T04:11:50.389Z,94260.34
2022-08-20T04:13:52.428Z,94253.94
2022-08-20T04:15:57.779Z,94262.56
2022-08-20T04:17:59.659Z,94261.31
2022-08-20T04:20:06.137Z,94261.56
2022-08-20T04:22:08.222Z,94265.09
2022-08-20T04:24:22.592Z,94260.59
2022-08-20T04:26:34.360Z,94263.31
2022-08-20T04:28:36.581Z,94270.28
2022-08-20T04:30:39.695Z,94267.13
2022-08-20T04:32:45.449Z,94268.22
2022-08-20T04:34:47.959Z,94268.72
2022-08-20T04:36:49.820Z,94271.47
2022-08-20T04:38:51.718Z,94261.78
2022-08-20T04:40:54.725Z,94259.59
2022-08-20T04:42:57.210Z,94267.91
2022-08-20T04:44:59.557Z,94271.47
2022-08-20T04:47:02.230Z,94273.66
2022-08-20T04:49:04.440Z,94266.97
2022-08-20T04:51:07.588Z,94270.47
2022-08-20T04:53:12.448Z,94277.47
2022-08-20T04:55:14.129Z,94269.22
2022-08-20T04:57:16.161Z,94266.28
2022-08-20T04:59:18.160Z,94259.34
2022-08-20T05:01:20.491Z,94256.41
2022-08-20T05:03:23.256Z,94259.94
2022-08-20T05:05:28.421Z,94261.53
2022-08-20T05:07:30.159Z,94271.44
2022-08-20T05:09:33.006Z,94271.94
2022-08-20T05:11:45.724Z,94275.66
2022-08-20T05:13:48.080Z,94278.63
2022-08-20T05:15:50.108Z,94265.34
2022-08-20T05:17:57.175Z,94269.03
2022-08-20T05:20:00.508Z,94274.72
2022-08-20T05:22:02.398Z,94273.19
2022-08-20T05:24:05.055Z,94273.81
2022-08-20T05:26:07.723Z,94264.00
2022-08-20T05:28:12.813Z,94260.03
2022-08-20T05:30:15.014Z,94258.69
2022-08-20T05:32:17.183Z,94252.50
2022-08-20T05:34:19.039Z,94258.31
2022-08-20T05:36:21.759Z,94252.47
2022-08-20T05:38:28.188Z,94251.34
2022-08-20T05:40:29.980Z,94245.78
2022-08-20T05:42:31.797Z,94245.59
2022-08-20T05:44:33.740Z,94254.47
2022-08-20T05:46:35.608Z,94253.69
2022-08-20T05:48:37.577Z,94261.75
2022-08-20T05:50:40.610Z,94258.31
2022-08-20T05:52:43.261Z,94263.16
2022-08-20T05:54:46.918Z,94257.81
2022-08-20T05:56:49.143Z,94254.06
2022-08-20T05:58:52.176Z,94250.03
2022-08-20T06:00:55.159Z,94242.81
2022-08-20T06:03:16.020Z,94244.91
2022-08-20T06:05:20.259Z,94246.25
2022-08-20T06:07:22.715Z,94244.91
2022-08-20T06:09:31.981Z,94248.16
2022-08-20T06:11:37.189Z,94246.03
2022-08-20T06:13:39.442Z,94249.81
2022-08-20T06:15:41.288Z,94251.16
2022-08-20T06:17:43.359Z,94247.38
2022-08-20T06:19:47.070Z,94253.03
2022-08-20T06:21:48.812Z,94246.06
2022-08-20T06:23:57.223Z,94250.06
2022-08-20T06:26:01.256Z,94251.13
2022-08-20T06:28:04.569Z,94247.13
2022-08-20T06:30:08.380Z,94251.16
2022-08-20T06:32:10.533Z,94236.91
2022-08-20T06:34:12.370Z,94241.75
2022-08-20T06:36:14.127Z,94248.44
2022-08-20T06:38:21.436Z,94240.41
2022-08-20T06:40:25.461Z,94244.97
2022-08-20T06:42:27.248Z,94242.28
2022-08-20T06:44:29.671Z,94245.50
2022-08-20T06:46:32.434Z,94237.97
2022-08-20T06:48:34.929Z,94236.56
2022-08-20T06:50:47.280Z,94232.22
2022-08-20T06:52:51.927Z,94233.53
2022-08-20T06:54:55.241Z,94232.19
2022-08-20T06:56:57.094Z,94232.97
2022-08-20T06:58:59.277Z,94231.31
2022-08-20T07:01:09.401Z,94237.72
2022-08-20T07:03:14.358Z,94233.94
2022-08-20T07:05:16.853Z,94228.75
2022-08-20T07:07:19.822Z,94227.66
2022-08-20T07:09:22.177Z,94220.06
2022-08-20T07:11:28.212Z,94224.88
2022-08-20T07:13:31.818Z,94219.19
2022-08-20T07:15:33.932Z,94210.81
2022-08-20T07:17:36.644Z,94206.97
2022-08-20T07:19:38.383Z,94208.84
2022-08-20T07:21:41.646Z,94212.09
2022-08-20T07:23:43.472Z,94220.25
2022-08-20T07:25:45.276Z,94213.78
2022-08-20T07:27:48.471Z,94215.63
2022-08-20T07:30:12.930Z,94214.00
2022-08-20T07:32:39.378Z,94211.63
2022-08-20T07:34:43.726Z,94211.38
2022-08-20T07:36:48.869Z,94210.50
2022-08-20T07:38:52.428Z,94207.09
2022-08-20T07:40:57.810Z,94206.19
2022-08-20T07:43:03.318Z,94203.88
2022-08-20T07:45:10.881Z,94212.38
2022-08-20T07:47:12.767Z,94213.09
2022-08-20T07:49:14.727Z,94216.41
2022-08-20T07:51:19.301Z,94220.41
2022-08-20T07:53:21.061Z,94203.66
2022-08-20T07:55:22.841Z,94208.94
2022-08-20T07:57:24.674Z,94205.06
2022-08-20T07:59:26.551Z,94205.25
2022-08-20T08:01:31.075Z,94210.53
2022-08-20T08:03:39.436Z,94210.63
2022-08-20T08:05:52.000Z,94212.56
2022-08-20T08:07:53.912Z,94208.31
2022-08-20T08:09:56.865Z,94199.19
2022-08-20T08:12:00.878Z,94201.16
2022-08-20T08:14:03.806Z,94206.19
2022-08-20T08:16:07.531Z,94215.41
2022-08-20T08:18:13.074Z,94210.19
2022-08-20T08:20:17.295Z,94200.56
2022-08-20T08:22:19.674Z,94193.13
2022-08-20T08:24:25.346Z,94192.66
2022-08-20T08:26:29.681Z,94192.06
2022-08-20T08:28:32.099Z,94192.00
2022-08-20T08:30:33.942Z,94196.59
2022-08-20T08:32:59.561Z,94195.19
2022-08-20T08:35:06.189Z,94178.19
2022-08-20T08:37:08.711Z,94186.44
2022-08-20T08:39:10.461Z,94180.28
2022-08-20T08:41:29.434Z,94175.22
2022-08-20T08:43:31.753Z,94183.81
2022-08-20T08:45:45.880Z,94183.72
2022-08-20T08:47:48.138Z,94183.22
2022-08-20T08:49:50.227Z,94174.53
2022-08-20T08:51:56.657Z,94163.09
2022-08-20T08:54:01.143Z,94169.75
2022-08-20T08:56:07.714Z,94164.16
2022-08-20T08:58:17.121Z,94158.44
2022-08-20T09:00:21.840Z,94163.97
2022-08-20T09:02:28.397Z,94157.25
2022-08-20T09:04:38.750Z,94145.72
2022-08-20T09:06:41.793Z,94149.81
2022-08-20T09:08:55.374Z,94154.72
2022-08-20T09:11:04.600Z,94148.81
2022-08-20T09:13:07.107Z,94151.41
2022-08-20T09:15:09.321Z,94158.09
2022-08-20T09:17:11.199Z,94159.31
2022-08-20T09:19:13.291Z,94154.03
2022-08-20T09:21:15.166Z,94159.09
2022-08-20T09:23:17.388Z,94158.16
2022-08-20T09:25:20.119Z,94159.44
2022-08-20T09:27:22.134Z,94151.06
2022-08-20T09:29:24.349Z,94152.19
2022-08-20T09:31:26.228Z,94155.63
2022-08-20T09:33:28.453Z,94147.38
2022-08-20T09:35:30.470Z,94142.16
2022-08-20T09:37:37.216Z,94138.88
2022-08-20T09:39:39.767Z,94141.13
2022-08-20T09:41:41.862Z,94140.41
2022-08-20T09:43:43.736Z,94128.16
2022-08-20T09:45:45.488Z,94144.19
2022-08-20T09:47:56.143Z,94143.47
2022-08-20T09:49:58.884Z,94130.88
2022-08-20T09:52:01.947Z,94134.56
2022-08-20T09:54:03.902Z,94132.38
2022-08-20T09:56:05.851Z,94126.28
2022-08-20T09:58:20.230Z,94130.09
2022-08-20T10:00:22.260Z,94136.41
2022-08-20T10:02:24.771Z,94129.50
2022-08-20T10:04:26.574Z,94128.66
2022-08-20T10:06:28.234Z,94132.47
2022-08-20T10:08:30.675Z,94130.63
2022-08-20T10:10:32.470Z,94130.25
2022-08-20T10:12:34.284Z,94125.28
2022-08-20T10:14:36.389Z,94130.19
2022-08-20T10:16:38.122Z,94124.84
2022-08-20T10:18:39.957Z,94126.81
2022-08-20T10:20:42.034Z,94124.75
2022-08-20T10:22:43.925Z,94121.63
2022-08-20T10:24:45.763Z,94115.28
2022-08-20T10:26:47.778Z,94122.00
2022-08-20T10:28:49.935Z,94108.19
2022-08-20T10:30:51.747Z,94106.28
2022-08-20T10:32:54.025Z,94113.38
2022-08-20T10:34:55.968Z,94107.38
2022-08-20T10:37:00.705Z,94109.84
2022-08-20T10:39:02.512Z,94112.56
2022-08-20T10:41:04.615Z,94094.34
2022-08-20T10:43:06.339Z,94102.16
2022-08-20T10:45:09.031Z,94099.16
2022-08-20T10:47:16.081Z,94101.88
2022-08-20T10:49:17.856Z,94101.91
2022-08-20T10:51:19.807Z,94095.38
2022-08-20T10:53:21.719Z,94093.69
2022-08-20T10:55:23.592Z,94089.38
2022-08-20T10:57:29.727Z,94092.91
2022-08-20T10:59:31.849Z,94088.81
2022-08-20T11:01:36.674Z,94086.72
2022-08-20T11:03:39.216Z,94082.25
2022-08-20T11:05:41.253Z,94090.09
2022-08-20T11:07:50.723Z,94097.75
2022-08-20T11:09:59.295Z,94087.69
2022-08-20T11:12:01.153Z,94086.09
2022-08-20T11:14:03.099Z,94074.41
2022-08-20T11:16:05.835Z,94079.84
2022-08-20T11:18:08.791Z,94073.34
2022-08-20T11:20:13.356Z,94069.84
2022-08-20T11:22:16.111Z,94062.47
2022-08-20T11:24:19.023Z,94071.38
2022-08-20T11:26:24.391Z,94072.19
2022-08-20T11:28:31.552Z,94058.28
2022-08-20T11:30:35.816Z,94048.41
2022-08-20T11:32:37.955Z,94048.09
2022-08-20T11:34:39.734Z,94042.00
2022-08-20T11:36:42.121Z,94045.50
2022-08-20T11:38:43.961Z,94045.19
2022-08-20T11:40:48.680Z,94035.53
2022-08-20T11:43:13.168Z,94038.19
2022-08-20T11:45:15.842Z,94038.19
2022-08-20T11:47:28.868Z,94027.34
2022-08-20T11:49:37.246Z,94024.66
2022-08-20T11:51:49.362Z,94031.50
2022-08-20T11:53:51.841Z,94027.03
2022-08-20T11:55:53.805Z,94040.59
2022-08-20T11:57:56.174Z,94038.38
2022-08-20T12:00:05.907Z,94039.97
2022-08-20T12:02:12.132Z,94038.66
2022-08-20T12:04:14.318Z,94037.94
2022-08-20T12:06:16.383Z,94036.16
2022-08-20T12:08:24.955Z,94040.91
2022-08-20T12:10:30.392Z,94028.38
2022-08-20T12:12:32.745Z,94033.63
2022-08-20T12:14:34.651Z,94043.97
2022-08-20T12:16:36.405Z,94040.91
2022-08-20T12:18:38.596Z,94043.75
2022-08-20T12:20:40.419Z,94041.47
2022-08-20T12:22:43.983Z,94047.47
2022-08-20T12:24:46.177Z,94050.84
2022-08-20T12:26:48.827Z,94049.25
2022-08-20T12:28:51.110Z,94050.34
2022-08-20T12:30:52.916Z,94049.88
2022-08-20T12:32:54.953Z,94049.06
2022-08-20T12:34:57.171Z,94060.50
2022-08-20T12:37:05.361Z,94056.22
2022-08-20T12:39:08.070Z,94070.09
2022-08-20T12:41:10.463Z,94076.28
2022-08-20T12:43:12.255Z,94074.69
2022-08-20T12:45:14.741Z,94081.13
2022-08-20T12:47:27.005Z,94082.34
2022-08-20T12:49:28.796Z,94081.03
2022-08-20T12:51:31.181Z,94084.09
2022-08-20T12:53:33.364Z,94083.97
2022-08-20T12:55:36.732Z,94080.09
2022-08-20T12:57:45.510Z,94076.59
2022-08-20T12:59:47.232Z,94066.31
2022-08-20T13:01:49.427Z,94062.44
2022-08-20T13:03:51.501Z,94055.28
2022-08-20T13:05:53.750Z,94045.22
2022-08-20T13:07:56.148Z,94031.94
2022-08-20T13:09:58.742Z,94026.88
2022-08-20T13:12:00.599Z,94014.78
2022-08-20T13:14:05.047Z,94015.66
2022-08-20T13:16:07.208Z,94010.06
2022-08-20T13:18:09.755Z,94006.59
2022-08-20T13:20:16.024Z,94017.06
2022-08-20T13:22:17.985Z,94021.41
2022-08-20T13:24:20.335Z,94035.66
2022-08-20T13:26:22.238Z,94041.81
2022-08-20T13:28:24.107Z,94057.78
2022-08-20T13:30:26.109Z,94063.19
2022-08-20T13:32:28.267Z,94068.06
2022-08-20T13:34:30.447Z,94070.00
2022-08-20T13:36:32.164Z,94059.56
2022-08-20T13:38:33.892Z,94058.53
2022-08-20T13:40:36.283Z,94062.25
2022-08-20T13:42:44.536Z,94067.91
2022-08-20T13:44:46.289Z,94068.16
2022-08-20T13:46:48.422Z,94071.41
2022-08-20T13:48:50.395Z,94088.97
2022-08-20T13:50:52.545Z,94115.59
2022-08-20T13:52:57.045Z,94134.47
2022-08-20T13:54:59.450Z,94154.50
2022-08-20T13:57:10.190Z,94165.19
2022-08-20T13:59:12.416Z,94163.03
2022-08-20T14:01:14.301Z,94184.13
2022-08-20T14:03:20.109Z,94178.47
2022-08-20T14:05:28.290Z,94164.47
2022-08-20T14:07:32.859Z,94165.31
2022-08-20T14:09:38.337Z,94184.72
2022-08-20T14:11:40.449Z,94201.34
2022-08-20T14:13:43.087Z,94219.25
2022-08-20T14:15:45.634Z,94237.75
2022-08-20T14:17:53.602Z,94257.13
2022-08-20T14:20:01.093Z,94259.38
2022-08-20T14:22:03.572Z,94252.72
2022-08-20T14:24:05.535Z,94254.63
2022-08-20T14:26:07.287Z,94246.47
2022-08-20T14:28:14.653Z,94239.91
2022-08-20T14:30:23.823Z,94248.63
2022-08-20T14:32:26.438Z,94248.72
2022-08-20T14:34:28.930Z,94260.84
2022-08-20T14:36:31.175Z,94262.72
2022-08-20T14:38:33.119Z,94263.66
2022-08-20T14:40:37.922Z,94263.47
2022-08-20T14:42:39.997Z,94287.19
2022-08-20T14:44:42.319Z,94281.25
2022-08-20T14:46:44.232Z,94288.19
2022-08-20T14:48:46.085Z,94295.41
2022-08-20T14:50:56.071Z,94283.66
2022-08-20T14:52:58.548Z,94248.59
2022-08-20T14:55:00.585Z,94210.97
2022-08-20T14:57:02.871Z,94167.72
2022-08-20T14:59:04.814Z,94120.72
2022-08-20T15:01:06.706Z,94097.13
2022-08-20T15:03:08.953Z,94083.56
2022-08-20T15:05:11.091Z,94081.81
2022-08-20T15:07:23.805Z,94100.19
2022-08-20T15:09:26.071Z,94112.00
2022-08-20T15:11:31.250Z,94128.94
2022-08-20T15:13:35.442Z,94135.44
2022-08-20T15:15:37.609Z,94133.84
2022-08-20T15:17:47.748Z,94125.97
2022-08-20T15:19:49.851Z,94123.78
2022-08-20T15:21:52.047Z,94129.84
2022-08-20T15:23:54.170Z,94141.69
2022-08-20T15:25:55.902Z,94154.91
2022-08-20T15:28:00.730Z,94153.75
2022-08-20T15:30:15.140Z,94132.50
2022-08-20T15:32:16.884Z,94113.72
2022-08-20T15:34:18.713Z,94104.75
2022-08-20T15:36:20.497Z,94114.72
2022-08-20T15:38:22.299Z,94109.16
2022-08-20T15:40:28.248Z,94107.91
2022-08-20T15:42:30.494Z,94100.75
2022-08-20T15:44:33.282Z,94089.84
2022-08-20T15:46:37.520Z,94088.63
2022-08-20T15:48:44.221Z,94086.28
2022-08-20T15:51:13.600Z,94086.88
2022-08-20T15:53:30.102Z,94071.47
2022-08-20T15:55:31.827Z,94055.44
2022-08-20T15:57:45.497Z,94033.81
2022-08-20T16:00:14.022Z,94008.44
2022-08-20T16:02:37.023Z,93991.06
2022-08-20T16:04:56.917Z,93970.72
2022-08-20T16:07:05.641Z,93970.94
2022-08-20T16:09:39.305Z,93965.03
2022-08-20T16:12:33.673Z,93981.13
2022-08-20T16:14:38.843Z,93991.63
2022-08-20T16:16:45.512Z,93989.25
2022-08-20T16:18:51.071Z,93967.56
2022-08-20T16:20:54.586Z,93950.38
2022-08-20T16:22:56.542Z,93943.56
2022-08-20T16:24:58.667Z,93952.81
2022-08-20T16:27:15.234Z,93973.69
2022-08-20T16:29:27.270Z,93975.41
2022-08-20T16:31:40.964Z,93985.63
2022-08-20T16:33:49.378Z,93989.97
2022-08-20T16:35:52.980Z,93995.31
2022-08-20T16:38:10.840Z,94004.69
2022-08-20T16:40:27.233Z,94023.63
2022-08-20T16:42:34.152Z,94034.69
2022-08-20T16:44:46.008Z,94052.22
2022-08-20T16:46:53.359Z,94050.63
2022-08-20T16:48:58.388Z,94039.75
2022-08-20T16:51:13.663Z,94047.63
2022-08-20T16:53:23.344Z,94034.53
2022-08-20T16:55:25.219Z,94048.50
2022-08-20T16:57:28.438Z,94054.66
2022-08-20T16:59:31.016Z,94068.09
2022-08-20T17:01:33.038Z,94076.66
2022-08-20T17:03:39.714Z,94099.66
2022-08-20T17:05:52.597Z,94120.59
2022-08-20T17:08:00.683Z,94133.66
2022-08-20T17:10:15.747Z,94145.72
2022-08-20T17:12:21.193Z,94147.84
2022-08-20T17:14:22.909Z,94129.03
2022-08-20T17:16:25.034Z,94120.75
2022-08-20T17:18:34.239Z,94119.69
2022-08-20T17:20:43.928Z,94124.50
2022-08-20T17:22:54.968Z,94134.69
2022-08-20T17:24:57.586Z,94145.25
2022-08-20T17:27:08.094Z,94179.88
2022-08-20T17:29:21.664Z,94199.66
2022-08-20T17:31:39.471Z,94233.72
2022-08-20T17:33:41.270Z,94251.38
2022-08-20T17:35:50.358Z,94265.50
2022-08-20T17:37:54.002Z,94264.13
2022-08-20T17:40:23.642Z,94263.28
2022-08-20T17:42:27.259Z,94280.16
2022-08-20T17:44:30.363Z,94291.41
2022-08-20T17:46:40.475Z,94293.13
2022-08-20T17:48:47.669Z,94309.47
2022-08-20T17:50:52.318Z,94310.59
2022-08-20T17:52:59.021Z,94320.03
2022-08-20T17:55:02.032Z,94327.03
2022-08-20T17:57:06.131Z,94330.00
2022-08-20T17:59:33.546Z,94332.41
2022-08-20T18:01:42.212Z,94351.75
2022-08-20T18:03:44.230Z,94358.13
2022-08-20T18:05:55.399Z,94363.16
2022-08-20T18:08:30.811Z,94374.97
2022-08-20T18:10:42.196Z,94376.66
2022-08-20T18:13:00.181Z,94382.72
2022-08-20T18:15:07.869Z,94393.25
2022-08-20T18:17:15.532Z,94385.25
2022-08-20T18:19:56.038Z,94393.56
2022-08-20T18:22:11.863Z,94383.56
2022-08-20T18:24:40.860Z,94398.75
2022-08-20T18:26:47.365Z,94394.91
2022-08-20T18:29:12.569Z,94398.00
2022-08-20T18:31:28.533Z,94388.59
2022-08-20T18:33:36.207Z,94394.34
2022-08-20T18:35:45.911Z,94400.66
2022-08-20T18:37:48.832Z,94408.53
2022-08-20T18:39:51.094Z,94414.44
2022-08-20T18:42:06.571Z,94408.16
2022-08-20T18:44:26.947Z,94403.91
2022-08-20T18:46:28.916Z,94391.41
2022-08-20T18:48:31.493Z,94391.88
2022-08-20T18:50:39.823Z,94383.31
2022-08-20T18:52:45.786Z,94381.84
2022-08-20T18:54:55.445Z,94393.63
2022-08-20T18:57:17.267Z,94390.72
2022-08-20T18:59:20.049Z,94375.66
2022-08-20T19:01:22.133Z,94369.09
2022-08-20T19:03:37.739Z,94380.56
2022-08-20T19:05:45.895Z,94372.91
2022-08-20T19:07:51.657Z,94368.16
2022-08-20T19:10:03.751Z,94375.56
2022-08-20T19:12:25.897Z,94378.59
2022-08-20T19:14:57.502Z,94380.56
2022-08-20T19:17:17.901Z,94372.94
2022-08-20T19:19:23.025Z,94385.19
2022-08-20T19:21:35.317Z,94368.88
2022-08-20T19:23:41.755Z,94372.28
2022-08-20T19:26:24.856Z,94373.56
2022-08-20T19:28:31.435Z,94369.44
2022-08-20T19:30:40.034Z,94360.81
2022-08-20T19:32:51.533Z,94362.50
2022-08-20T19:35:06.535Z,94343.53
2022-08-20T19:37:35.466Z,94344.59
2022-08-20T19:39:39.839Z,94339.34
2022-08-20T19:41:55.915Z,94353.81
2022-08-20T19:43:58.305Z,94381.72
2022-08-20T19:46:00.135Z,94400.03
2022-08-20T19:48:17.613Z,94393.25
2022-08-20T19:50:38.109Z,94375.75
2022-08-20T19:52:45.798Z,94367.56
2022-08-20T19:54:53.970Z,94365.19
2022-08-20T19:57:04.546Z,94358.69
2022-08-20T19:59:09.008Z,94361.69
2022-08-20T20:01:17.481Z,94365.78
2022-08-20T20:03:22.817Z,94356.66
2022-08-20T20:05:24.806Z,94365.84
2022-08-20T20:07:42.288Z,94347.03
2022-08-20T20:09:54.261Z,94337.69
2022-08-20T20:11:59.346Z,94345.34
2022-08-20T20:14:03.778Z,94348.28
2022-08-20T20:16:05.684Z,94331.94
2022-08-20T20:18:08.266Z,94339.09
2022-08-20T20:20:29.944Z,94329.91
2022-08-20T20:22:34.504Z,94329.00
2022-08-20T20:24:45.830Z,94336.28
2022-08-20T20:26:48.424Z,94337.28
2022-08-20T20:28:53.553Z,94331.75
2022-08-20T20:31:06.503Z,94348.88
2022-08-20T20:33:18.204Z,94350.47
2022-08-20T20:35:27.559Z,94366.91
2022-08-20T20:37:49.556Z,94361.13
2022-08-20T20:40:08.598Z,94348.97
2022-08-20T20:42:29.179Z,94350.59
2022-08-20T20:44:37.154Z,94347.72
2022-08-20T20:46:39.905Z,94330.22
2022-08-20T20:48:46.171Z,94320.38
2022-08-20T20:50:49.046Z,94306.28
2022-08-20T20:52:56.246Z,94303.50
2022-08-20T20:55:23.476Z,94288.00
2022-08-20T20:57:38.667Z,94281.75
2022-08-20T20:59:40.855Z,94266.94
2022-08-20T21:01:48.274Z,94264.94
2022-08-20T21:03:51.651Z,94251.97
2022-08-20T21:05:54.087Z,94245.13
2022-08-20T21:08:00.390Z,94236.44
2022-08-20T21:10:02.251Z,94230.19
2022-08-20T21:12:04.802Z,94221.63
2022-08-20T21:14:06.805Z,94208.34
2022-08-20T21:16:08.807Z,94202.56
2022-08-20T21:18:11.980Z,94194.69
2022-08-20T21:20:14.325Z,94196.69
2022-08-20T21:22:16.517Z,94216.22
2022-08-20T21:24:18.535Z,94209.63
2022-08-20T21:26:20.642Z,94187.66
2022-08-20T21:28:22.686Z,94181.75
2022-08-20T21:30:30.717Z,94169.50
2022-08-20T21:32:35.818Z,94166.56
2022-08-20T21:34:37.517Z,94157.19
2022-08-20T21:36:40.055Z,94154.16
2022-08-20T21:38:41.896Z,94152.88
2022-08-20T21:40:46.909Z,94154.25
2022-08-20T21:42:48.873Z,94160.81
2022-08-20T21:44:51.040Z,94146.00
2022-08-20T21:46:54.227Z,94143.56
2022-08-20T21:48:56.590Z,94151.47
2022-08-20T21:51:02.215Z,94152.94
2022-08-20T21:53:12.195Z,94153.44
2022-08-20T21:55:14.867Z,94140.72
2022-08-20T21:57:29.230Z,94155.91
2022-08-20T21:59:31.288Z,94163.03
2022-08-20T22:01:33.500Z,94172.91
2022-08-20T22:03:38.633Z,94181.63
2022-08-20T22:05:43.382Z,94183.13
2022-08-20T22:07:45.191Z,94184.75
2022-08-20T22:09:46.966Z,94179.91
2022-08-20T22:11:54.001Z,94180.72
2022-08-20T22:13:57.487Z,94180.81
2022-08-20T22:16:00.551Z,94187.66
2022-08-20T22:18:03.167Z,94187.56
2022-08-20T22:20:05.462Z,94186.63
2022-08-20T22:22:10.769Z,94184.19
2022-08-20T22:24:13.770Z,94184.63
2022-08-20T22:26:19.369Z,94183.44
2022-08-20T22:28:21.777Z,94178.78
2022-08-20T22:30:24.996Z,94177.38
2022-08-20T22:32:33.550Z,94175.84
2022-08-20T22:34:48.823Z,94176.09
2022-08-20T22:36:53.348Z,94180.13
2022-08-20T22:38:55.236Z,94182.69
2022-08-20T22:40:57.777Z,94187.00
2022-08-20T22:42:59.780Z,94186.03
2022-08-20T22:45:02.171Z,94179.91
2022-08-20T22:47:06.853Z,94176.66
2022-08-20T22:49:11.789Z,94179.53
2022-08-20T22:51:21.761Z,94177.94
2022-08-20T22:53:25.553Z,94173.75
2022-08-20T22:55:27.541Z,94166.69
2022-08-20T22:57:30.862Z,94171.75
2022-08-20T22:59:41.377Z,94170.16
2022-08-20T23:01:54.916Z,94172.47
2022-08-20T23:04:08.133Z,94178.38
2022-08-20T23:06:10.930Z,94171.53
2022-08-20T23:08:13.179Z,94157.41
2022-08-20T23:10:15.420Z,94155.19
2022-08-20T23:12:17.411Z,94150.72
2022-08-20T23:14:22.846Z,94148.28
2022-08-20T23:16:29.265Z,94144.25
2022-08-20T23:18:31.128Z,94145.38
2022-08-20T23:20:33.225Z,94139.72
2022-08-20T23:22:35.384Z,94142.47
2022-08-20T23:24:37.279Z,94142.72
2022-08-20T23:26:44.711Z,94148.84
2022-08-20T23:28:54.847Z,94150.38
2022-08-20T23:30:57.038Z,94146.34
2022-08-20T23:33:01.735Z,94140.84
2022-08-20T23:35:05.053Z,94132.97
2022-08-20T23:37:07.655Z,94124.09
2022-08-20T23:39:10.679Z,94129.75
2022-08-20T23:41:13.103Z,94134.63
2022-08-20T23:43:14.891Z,94130.09
2022-08-20T23:45:17.437Z,94126.38
2022-08-20T23:47:20.887Z,94129.59
2022-08-20T23:49:22.648Z,94129.72
2022-08-20T23:51:25.158Z,94134.09
2022-08-20T23:53:27.438Z,94120.59
2022-08-20T23:55:29.290Z,94134.75
2022-08-20T23:57:31.899Z,94126.78
2022-08-20T23:59:34.222Z,94133.75
